sensor_id;sensor_type;location;lat;lon;timestamp;temperature;humidity
28244;DHT22;15510;52.512;13.300;2023-05-14T00:00:26;15.70;99.90
28244;DHT22;15510;52.512;13.300;2023-05-14T00:02:51;15.60;99.90
28244;DHT22;15510;52.512;13.300;2023-05-14T00:05:17;15.50;99.90
28244;DHT22;15510;52.512;13.300;2023-05-14T00:07:43;15.50;99.90
28244;DHT22;15510;52.512;13.300;2023-05-14T00:10:09;15.50;99.90
28244;DHT22;15510;52.512;13.300;2023-05-14T00:12:35;15.50;99.90
28244;DHT22;15510;52.512;13.300;2023-05-14T00:15:01;15.40;99.90
28244;DHT22;15510;52.512;13.300;2023-05-14T00:17:27;15.40;99.90
28244;DHT22;15510;52.512;13.300;2023-05-14T00:19:53;15.30;99.90
28244;DHT22;15510;52.512;13.300;2023-05-14T00:22:19;15.30;99.90
28244;DHT22;15510;52.512;13.300;2023-05-14T00:24:45;15.30;99.90
28244;DHT22;15510;52.512;13.300;2023-05-14T00:27:10;15.20;99.90
28244;DHT22;15510;52.512;13.300;2023-05-14T00:29:36;15.20;99.90
28244;DHT22;15510;52.512;13.300;2023-05-14T00:32:02;15.10;99.90
28244;DHT22;15510;52.512;13.300;2023-05-14T00:34:28;15.10;99.90
28244;DHT22;15510;52.512;13.300;2023-05-14T00:36:54;15.00;99.90
28244;DHT22;15510;52.512;13.300;2023-05-14T00:39:20;14.90;99.90
28244;DHT22;15510;52.512;13.300;2023-05-14T00:41:46;14.90;99.90
28244;DHT22;15510;52.512;13.300;2023-05-14T00:44:11;14.90;99.90
28244;DHT22;15510;52.512;13.300;2023-05-14T00:46:37;14.80;99.90
28244;DHT22;15510;52.512;13.300;2023-05-14T00:49:03;14.70;99.90
28244;DHT22;15510;52.512;13.300;2023-05-14T00:51:29;14.70;99.90
28244;DHT22;15510;52.512;13.300;2023-05-14T00:53:55;14.70;99.90
28244;DHT22;15510;52.512;13.300;2023-05-14T00:56:21;14.70;99.90
28244;DHT22;15510;52.512;13.300;2023-05-14T00:58:48;14.70;99.90
28244;DHT22;15510;52.512;13.300;2023-05-14T01:01:13;14.70;99.90
28244;DHT22;15510;52.512;13.300;2023-05-14T01:03:40;14.60;99.90
28244;DHT22;15510;52.512;13.300;2023-05-14T01:06:15;14.60;99.90
28244;DHT22;15510;52.512;13.300;2023-05-14T01:12:07;14.60;99.90
28244;DHT22;15510;52.512;13.300;2023-05-14T01:14:42;14.50;99.90
28244;DHT22;15510;52.512;13.300;2023-05-14T01:17:10;14.50;99.90
28244;DHT22;15510;52.512;13.300;2023-05-14T01:19:43;14.50;99.90
28244;DHT22;15510;52.512;13.300;2023-05-14T01:22:10;14.30;99.90
28244;DHT22;15510;52.512;13.300;2023-05-14T01:24:37;14.30;99.90
28244;DHT22;15510;52.512;13.300;2023-05-14T01:29:55;14.20;99.90
28244;DHT22;15510;52.512;13.300;2023-05-14T01:32:24;14.20;99.90
28244;DHT22;15510;52.512;13.300;2023-05-14T01:34:51;14.10;99.90
28244;DHT22;15510;52.512;13.300;2023-05-14T01:37:18;14.10;99.90
28244;DHT22;15510;52.512;13.300;2023-05-14T01:39:44;14.10;99.90
28244;DHT22;15510;52.512;13.300;2023-05-14T01:42:10;14.10;99.90
28244;DHT22;15510;52.512;13.300;2023-05-14T01:44:36;14.10;99.90
28244;DHT22;15510;52.512;13.300;2023-05-14T01:47:02;14.00;99.90
28244;DHT22;15510;52.512;13.300;2023-05-14T01:49:28;14.00;99.90
28244;DHT22;15510;52.512;13.300;2023-05-14T01:51:54;14.00;99.90
28244;DHT22;15510;52.512;13.300;2023-05-14T01:54:20;14.00;99.90
28244;DHT22;15510;52.512;13.300;2023-05-14T01:56:46;14.00;99.90
28244;DHT22;15510;52.512;13.300;2023-05-14T01:59:12;14.00;99.90
28244;DHT22;15510;52.512;13.300;2023-05-14T02:01:38;13.90;99.90
28244;DHT22;15510;52.512;13.300;2023-05-14T02:04:04;13.90;99.90
28244;DHT22;15510;52.512;13.300;2023-05-14T02:06:29;13.90;99.90
28244;DHT22;15510;52.512;13.300;2023-05-14T02:08:56;13.90;99.90
28244;DHT22;15510;52.512;13.300;2023-05-14T02:11:22;13.90;99.90
28244;DHT22;15510;52.512;13.300;2023-05-14T02:13:48;13.90;99.90
28244;DHT22;15510;52.512;13.300;2023-05-14T02:16:14;13.90;99.90
28244;DHT22;15510;52.512;13.300;2023-05-14T02:18:40;14.00;99.90
28244;DHT22;15510;52.512;13.300;2023-05-14T02:21:06;14.00;99.90
28244;DHT22;15510;52.512;13.300;2023-05-14T02:23:32;14.00;99.90
28244;DHT22;15510;52.512;13.300;2023-05-14T02:26:04;14.00;99.90
28244;DHT22;15510;52.512;13.300;2023-05-14T02:28:30;14.10;99.90
28244;DHT22;15510;52.512;13.300;2023-05-14T02:30:59;14.10;99.90
28244;DHT22;15510;52.512;13.300;2023-05-14T02:33:26;14.20;99.90
28244;DHT22;15510;52.512;13.300;2023-05-14T02:35:52;14.20;99.90
28244;DHT22;15510;52.512;13.300;2023-05-14T02:38:18;14.20;99.90
28244;DHT22;15510;52.512;13.300;2023-05-14T02:40:44;14.20;99.90
28244;DHT22;15510;52.512;13.300;2023-05-14T02:43:10;14.30;99.90
28244;DHT22;15510;52.512;13.300;2023-05-14T02:45:36;14.30;99.90
28244;DHT22;15510;52.512;13.300;2023-05-14T02:48:01;14.30;99.90
28244;DHT22;15510;52.512;13.300;2023-05-14T02:50:27;14.40;99.90
28244;DHT22;15510;52.512;13.300;2023-05-14T02:52:53;14.40;99.90
28244;DHT22;15510;52.512;13.300;2023-05-14T02:55:19;14.40;99.90
28244;DHT22;15510;52.512;13.300;2023-05-14T02:57:46;14.40;99.90
28244;DHT22;15510;52.512;13.300;2023-05-14T03:00:12;14.40;99.90
28244;DHT22;15510;52.512;13.300;2023-05-14T03:02:38;14.50;99.90
28244;DHT22;15510;52.512;13.300;2023-05-14T03:05:04;14.50;99.90
28244;DHT22;15510;52.512;13.300;2023-05-14T03:07:30;14.50;99.90
28244;DHT22;15510;52.512;13.300;2023-05-14T03:09:55;14.50;99.90
28244;DHT22;15510;52.512;13.300;2023-05-14T03:12:21;14.50;99.90
28244;DHT22;15510;52.512;13.300;2023-05-14T03:14:47;14.50;99.90
28244;DHT22;15510;52.512;13.300;2023-05-14T03:17:12;14.50;99.90
28244;DHT22;15510;52.512;13.300;2023-05-14T03:19:38;14.60;99.90
28244;DHT22;15510;52.512;13.300;2023-05-14T03:22:06;14.60;99.90
28244;DHT22;15510;52.512;13.300;2023-05-14T03:24:32;14.70;99.90
28244;DHT22;15510;52.512;13.300;2023-05-14T03:27:00;14.70;99.90
28244;DHT22;15510;52.512;13.300;2023-05-14T03:29:26;14.70;99.90
28244;DHT22;15510;52.512;13.300;2023-05-14T03:31:52;14.80;99.90
28244;DHT22;15510;52.512;13.300;2023-05-14T03:34:19;14.80;99.90
28244;DHT22;15510;52.512;13.300;2023-05-14T03:36:45;14.70;99.90
28244;DHT22;15510;52.512;13.300;2023-05-14T03:39:11;14.70;99.90
28244;DHT22;15510;52.512;13.300;2023-05-14T03:41:40;14.80;99.90
28244;DHT22;15510;52.512;13.300;2023-05-14T03:44:09;14.90;99.90
28244;DHT22;15510;52.512;13.300;2023-05-14T03:46:35;14.90;99.90
28244;DHT22;15510;52.512;13.300;2023-05-14T03:49:01;14.90;99.90
28244;DHT22;15510;52.512;13.300;2023-05-14T03:51:27;14.90;99.90
28244;DHT22;15510;52.512;13.300;2023-05-14T03:53:53;15.00;99.90
28244;DHT22;15510;52.512;13.300;2023-05-14T03:56:18;15.00;99.90
28244;DHT22;15510;52.512;13.300;2023-05-14T03:58:46;15.10;99.90
28244;DHT22;15510;52.512;13.300;2023-05-14T04:01:13;15.10;99.90
28244;DHT22;15510;52.512;13.300;2023-05-14T04:03:42;15.10;99.90
28244;DHT22;15510;52.512;13.300;2023-05-14T04:06:09;15.10;99.90
28244;DHT22;15510;52.512;13.300;2023-05-14T04:08:35;15.20;99.90
28244;DHT22;15510;52.512;13.300;2023-05-14T04:11:01;15.20;99.90
28244;DHT22;15510;52.512;13.300;2023-05-14T04:13:27;15.10;99.90
28244;DHT22;15510;52.512;13.300;2023-05-14T04:15:53;15.00;99.90
28244;DHT22;15510;52.512;13.300;2023-05-14T04:18:19;15.00;99.90
28244;DHT22;15510;52.512;13.300;2023-05-14T04:20:45;15.00;99.90
28244;DHT22;15510;52.512;13.300;2023-05-14T04:23:11;15.00;99.90
28244;DHT22;15510;52.512;13.300;2023-05-14T04:25:37;15.00;99.90
28244;DHT22;15510;52.512;13.300;2023-05-14T04:28:09;15.00;99.90
28244;DHT22;15510;52.512;13.300;2023-05-14T04:30:35;15.00;99.90
28244;DHT22;15510;52.512;13.300;2023-05-14T04:33:01;15.00;99.90
28244;DHT22;15510;52.512;13.300;2023-05-14T04:35:27;15.00;99.90
28244;DHT22;15510;52.512;13.300;2023-05-14T04:37:53;14.90;99.90
28244;DHT22;15510;52.512;13.300;2023-05-14T04:40:19;14.90;99.90
28244;DHT22;15510;52.512;13.300;2023-05-14T04:42:45;15.00;99.90
28244;DHT22;15510;52.512;13.300;2023-05-14T04:45:11;15.00;99.90
28244;DHT22;15510;52.512;13.300;2023-05-14T04:47:38;15.10;99.90
28244;DHT22;15510;52.512;13.300;2023-05-14T04:50:04;15.10;99.90
28244;DHT22;15510;52.512;13.300;2023-05-14T04:52:31;15.20;99.90
28244;DHT22;15510;52.512;13.300;2023-05-14T04:54:58;15.20;99.90
28244;DHT22;15510;52.512;13.300;2023-05-14T04:57:24;15.30;99.90
28244;DHT22;15510;52.512;13.300;2023-05-14T04:59:50;15.30;99.90
28244;DHT22;15510;52.512;13.300;2023-05-14T05:02:15;15.30;99.90
28244;DHT22;15510;52.512;13.300;2023-05-14T05:04:42;15.40;99.90
28244;DHT22;15510;52.512;13.300;2023-05-14T05:07:07;15.40;99.90
28244;DHT22;15510;52.512;13.300;2023-05-14T05:09:33;15.50;99.90
28244;DHT22;15510;52.512;13.300;2023-05-14T05:11:59;15.60;99.90
28244;DHT22;15510;52.512;13.300;2023-05-14T05:14:26;15.70;99.90
28244;DHT22;15510;52.512;13.300;2023-05-14T05:16:52;15.70;99.90
28244;DHT22;15510;52.512;13.300;2023-05-14T05:19:18;15.70;99.90
28244;DHT22;15510;52.512;13.300;2023-05-14T05:21:44;15.80;99.90
28244;DHT22;15510;52.512;13.300;2023-05-14T05:24:10;15.90;99.90
28244;DHT22;15510;52.512;13.300;2023-05-14T05:26:36;15.90;99.90
28244;DHT22;15510;52.512;13.300;2023-05-14T05:29:03;15.90;99.90
28244;DHT22;15510;52.512;13.300;2023-05-14T05:31:37;16.00;99.90
28244;DHT22;15510;52.512;13.300;2023-05-14T05:34:04;16.00;99.90
28244;DHT22;15510;52.512;13.300;2023-05-14T05:36:30;16.00;99.90
28244;DHT22;15510;52.512;13.300;2023-05-14T05:38:56;16.10;99.90
28244;DHT22;15510;52.512;13.300;2023-05-14T05:41:22;16.10;99.90
28244;DHT22;15510;52.512;13.300;2023-05-14T05:43:52;16.20;99.90
28244;DHT22;15510;52.512;13.300;2023-05-14T05:46:18;16.20;99.90
28244;DHT22;15510;52.512;13.300;2023-05-14T05:48:44;16.30;99.90
28244;DHT22;15510;52.512;13.300;2023-05-14T05:51:10;16.40;99.90
28244;DHT22;15510;52.512;13.300;2023-05-14T05:53:36;16.40;99.90
28244;DHT22;15510;52.512;13.300;2023-05-14T05:56:02;16.30;99.90
28244;DHT22;15510;52.512;13.300;2023-05-14T05:58:28;16.30;99.90
28244;DHT22;15510;52.512;13.300;2023-05-14T06:00:53;16.30;99.90
28244;DHT22;15510;52.512;13.300;2023-05-14T06:03:19;16.30;99.90
28244;DHT22;15510;52.512;13.300;2023-05-14T06:05:46;16.20;99.90
28244;DHT22;15510;52.512;13.300;2023-05-14T06:08:12;16.20;99.90
28244;DHT22;15510;52.512;13.300;2023-05-14T06:10:38;16.20;99.90
28244;DHT22;15510;52.512;13.300;2023-05-14T06:13:03;16.20;99.90
28244;DHT22;15510;52.512;13.300;2023-05-14T06:15:32;16.20;99.90
28244;DHT22;15510;52.512;13.300;2023-05-14T06:18:04;16.30;99.90
28244;DHT22;15510;52.512;13.300;2023-05-14T06:20:30;16.30;99.90
28244;DHT22;15510;52.512;13.300;2023-05-14T06:22:57;16.40;99.90
28244;DHT22;15510;52.512;13.300;2023-05-14T06:25:23;16.50;99.90
28244;DHT22;15510;52.512;13.300;2023-05-14T06:27:48;16.50;99.90
28244;DHT22;15510;52.512;13.300;2023-05-14T06:30:14;16.60;99.90
28244;DHT22;15510;52.512;13.300;2023-05-14T06:32:40;16.60;99.90
28244;DHT22;15510;52.512;13.300;2023-05-14T06:35:06;16.60;99.90
28244;DHT22;15510;52.512;13.300;2023-05-14T06:37:33;16.60;99.90
28244;DHT22;15510;52.512;13.300;2023-05-14T06:40:00;16.60;99.90
28244;DHT22;15510;52.512;13.300;2023-05-14T06:42:25;16.70;99.90
28244;DHT22;15510;52.512;13.300;2023-05-14T06:44:51;16.90;99.90
28244;DHT22;15510;52.512;13.300;2023-05-14T06:47:20;17.20;99.90
28244;DHT22;15510;52.512;13.300;2023-05-14T06:49:46;17.40;99.90
28244;DHT22;15510;52.512;13.300;2023-05-14T06:52:12;17.70;99.90
28244;DHT22;15510;52.512;13.300;2023-05-14T06:54:38;17.80;99.90
28244;DHT22;15510;52.512;13.300;2023-05-14T06:57:04;18.10;99.90
28244;DHT22;15510;52.512;13.300;2023-05-14T06:59:30;18.30;99.90
28244;DHT22;15510;52.512;13.300;2023-05-14T07:01:59;18.40;99.90
28244;DHT22;15510;52.512;13.300;2023-05-14T07:04:26;18.40;99.90
28244;DHT22;15510;52.512;13.300;2023-05-14T07:06:51;18.40;99.90
28244;DHT22;15510;52.512;13.300;2023-05-14T07:09:17;18.50;99.90
28244;DHT22;15510;52.512;13.300;2023-05-14T07:11:43;18.60;99.60
28244;DHT22;15510;52.512;13.300;2023-05-14T07:14:08;18.60;99.40
28244;DHT22;15510;52.512;13.300;2023-05-14T07:16:34;18.70;99.30
28244;DHT22;15510;52.512;13.300;2023-05-14T07:19:00;18.80;99.00
28244;DHT22;15510;52.512;13.300;2023-05-14T07:21:26;18.90;98.90
28244;DHT22;15510;52.512;13.300;2023-05-14T07:23:52;19.00;98.90
28244;DHT22;15510;52.512;13.300;2023-05-14T07:26:18;19.10;98.50
28244;DHT22;15510;52.512;13.300;2023-05-14T07:28:44;19.10;98.50
28244;DHT22;15510;52.512;13.300;2023-05-14T07:31:11;19.30;98.30
28244;DHT22;15510;52.512;13.300;2023-05-14T07:33:37;19.40;98.00
28244;DHT22;15510;52.512;13.300;2023-05-14T07:36:04;19.50;98.10
28244;DHT22;15510;52.512;13.300;2023-05-14T07:38:30;19.60;97.70
28244;DHT22;15510;52.512;13.300;2023-05-14T07:40:56;19.60;97.40
28244;DHT22;15510;52.512;13.300;2023-05-14T07:43:23;19.70;97.40
28244;DHT22;15510;52.512;13.300;2023-05-14T07:45:49;19.70;97.10
28244;DHT22;15510;52.512;13.300;2023-05-14T07:48:15;19.80;97.40
28244;DHT22;15510;52.512;13.300;2023-05-14T07:50:40;19.90;96.30
28244;DHT22;15510;52.512;13.300;2023-05-14T07:53:06;20.10;95.80
28244;DHT22;15510;52.512;13.300;2023-05-14T07:55:32;20.10;95.40
28244;DHT22;15510;52.512;13.300;2023-05-14T07:57:58;20.30;95.40
28244;DHT22;15510;52.512;13.300;2023-05-14T08:00:23;20.50;95.20
28244;DHT22;15510;52.512;13.300;2023-05-14T08:02:49;20.60;94.80
28244;DHT22;15510;52.512;13.300;2023-05-14T08:05:16;20.80;94.70
28244;DHT22;15510;52.512;13.300;2023-05-14T08:07:42;20.90;93.30
28244;DHT22;15510;52.512;13.300;2023-05-14T08:10:09;20.90;93.30
28244;DHT22;15510;52.512;13.300;2023-05-14T08:12:35;21.10;92.80
28244;DHT22;15510;52.512;13.300;2023-05-14T08:15:01;21.20;93.20
28244;DHT22;15510;52.512;13.300;2023-05-14T08:17:27;21.30;92.80
28244;DHT22;15510;52.512;13.300;2023-05-14T08:19:53;21.40;91.90
28244;DHT22;15510;52.512;13.300;2023-05-14T08:22:19;21.50;91.30
28244;DHT22;15510;52.512;13.300;2023-05-14T08:24:46;21.70;90.90
28244;DHT22;15510;52.512;13.300;2023-05-14T08:27:12;21.90;90.70
28244;DHT22;15510;52.512;13.300;2023-05-14T08:29:38;21.70;89.10
28244;DHT22;15510;52.512;13.300;2023-05-14T08:32:04;21.60;89.70
28244;DHT22;15510;52.512;13.300;2023-05-14T08:34:30;21.80;90.00
28244;DHT22;15510;52.512;13.300;2023-05-14T08:36:59;21.90;90.10
28244;DHT22;15510;52.512;13.300;2023-05-14T08:39:28;22.10;87.20
28244;DHT22;15510;52.512;13.300;2023-05-14T08:41:54;22.20;87.40
28244;DHT22;15510;52.512;13.300;2023-05-14T08:44:41;22.20;85.30
28244;DHT22;15510;52.512;13.300;2023-05-14T08:47:11;22.10;86.20
28244;DHT22;15510;52.512;13.300;2023-05-14T08:49:43;21.80;84.30
28244;DHT22;15510;52.512;13.300;2023-05-14T08:52:11;21.70;84.30
28244;DHT22;15510;52.512;13.300;2023-05-14T08:54:38;21.80;84.90
28244;DHT22;15510;52.512;13.300;2023-05-14T08:57:06;22.00;85.60
28244;DHT22;15510;52.512;13.300;2023-05-14T08:59:33;21.90;83.60
28244;DHT22;15510;52.512;13.300;2023-05-14T09:02:07;21.70;83.10
28244;DHT22;15510;52.512;13.300;2023-05-14T09:04:35;21.60;83.90
28244;DHT22;15510;52.512;13.300;2023-05-14T09:07:04;21.50;83.90
28244;DHT22;15510;52.512;13.300;2023-05-14T09:09:32;21.60;84.30
28244;DHT22;15510;52.512;13.300;2023-05-14T09:11:58;21.80;83.40
28244;DHT22;15510;52.512;13.300;2023-05-14T09:14:24;22.20;81.40
28244;DHT22;15510;52.512;13.300;2023-05-14T09:16:50;22.20;80.30
28244;DHT22;15510;52.512;13.300;2023-05-14T09:19:17;22.50;79.80
28244;DHT22;15510;52.512;13.300;2023-05-14T09:21:44;22.60;80.20
28244;DHT22;15510;52.512;13.300;2023-05-14T09:24:21;22.80;78.80
28244;DHT22;15510;52.512;13.300;2023-05-14T09:26:53;23.00;76.20
28244;DHT22;15510;52.512;13.300;2023-05-14T09:29:19;23.00;76.40
28244;DHT22;15510;52.512;13.300;2023-05-14T09:31:46;23.10;75.60
28244;DHT22;15510;52.512;13.300;2023-05-14T09:34:26;23.20;75.90
28244;DHT22;15510;52.512;13.300;2023-05-14T09:37:00;23.10;76.30
28244;DHT22;15510;52.512;13.300;2023-05-14T09:39:31;22.90;74.80
28244;DHT22;15510;52.512;13.300;2023-05-14T09:41:58;22.60;77.20
28244;DHT22;15510;52.512;13.300;2023-05-14T09:44:32;22.40;77.50
28244;DHT22;15510;52.512;13.300;2023-05-14T09:47:14;22.30;76.20
28244;DHT22;15510;52.512;13.300;2023-05-14T09:49:40;22.00;75.90
28244;DHT22;15510;52.512;13.300;2023-05-14T09:52:06;21.60;75.10
28244;DHT22;15510;52.512;13.300;2023-05-14T09:54:33;21.50;77.50
28244;DHT22;15510;52.512;13.300;2023-05-14T09:57:00;21.60;76.90
28244;DHT22;15510;52.512;13.300;2023-05-14T09:59:26;21.70;75.70
28244;DHT22;15510;52.512;13.300;2023-05-14T10:01:52;21.70;75.90
28244;DHT22;15510;52.512;13.300;2023-05-14T10:04:19;21.80;77.50
28244;DHT22;15510;52.512;13.300;2023-05-14T10:06:49;21.80;76.20
28244;DHT22;15510;52.512;13.300;2023-05-14T10:09:18;21.90;76.00
28244;DHT22;15510;52.512;13.300;2023-05-14T10:11:49;21.80;77.00
28244;DHT22;15510;52.512;13.300;2023-05-14T10:14:24;21.80;75.70
28244;DHT22;15510;52.512;13.300;2023-05-14T10:16:52;21.70;76.80
28244;DHT22;15510;52.512;13.300;2023-05-14T10:19:20;21.70;77.50
28244;DHT22;15510;52.512;13.300;2023-05-14T10:21:54;21.80;77.10
28244;DHT22;15510;52.512;13.300;2023-05-14T10:24:20;21.80;77.40
28244;DHT22;15510;52.512;13.300;2023-05-14T10:26:47;21.60;75.60
28244;DHT22;15510;52.512;13.300;2023-05-14T10:29:13;21.50;76.10
28244;DHT22;15510;52.512;13.300;2023-05-14T10:31:52;21.20;76.00
28244;DHT22;15510;52.512;13.300;2023-05-14T10:34:40;21.00;76.50
28244;DHT22;15510;52.512;13.300;2023-05-14T10:37:15;20.90;77.20
28244;DHT22;15510;52.512;13.300;2023-05-14T10:39:51;20.80;79.00
28244;DHT22;15510;52.512;13.300;2023-05-14T10:42:24;20.70;80.30
28244;DHT22;15510;52.512;13.300;2023-05-14T10:45:03;20.50;79.80
28244;DHT22;15510;52.512;13.300;2023-05-14T10:47:39;20.60;79.00
28244;DHT22;15510;52.512;13.300;2023-05-14T10:50:13;20.70;78.00
28244;DHT22;15510;52.512;13.300;2023-05-14T10:52:43;20.70;79.60
28244;DHT22;15510;52.512;13.300;2023-05-14T10:55:14;20.90;79.00
28244;DHT22;15510;52.512;13.300;2023-05-14T10:57:44;21.00;78.30
28244;DHT22;15510;52.512;13.300;2023-05-14T11:00:12;21.00;77.20
28244;DHT22;15510;52.512;13.300;2023-05-14T11:02:40;20.90;78.50
28244;DHT22;15510;52.512;13.300;2023-05-14T11:05:08;20.80;77.30
28244;DHT22;15510;52.512;13.300;2023-05-14T11:07:38;20.80;77.90
28244;DHT22;15510;52.512;13.300;2023-05-14T11:10:09;20.80;78.00
28244;DHT22;15510;52.512;13.300;2023-05-14T11:12:37;20.90;78.70
28244;DHT22;15510;52.512;13.300;2023-05-14T11:15:08;21.20;77.80
28244;DHT22;15510;52.512;13.300;2023-05-14T11:17:36;21.40;76.90
28244;DHT22;15510;52.512;13.300;2023-05-14T11:20:03;21.40;78.20
28244;DHT22;15510;52.512;13.300;2023-05-14T11:22:33;21.50;77.10
28244;DHT22;15510;52.512;13.300;2023-05-14T11:24:59;21.40;78.80
28244;DHT22;15510;52.512;13.300;2023-05-14T11:27:25;21.30;79.90
28244;DHT22;15510;52.512;13.300;2023-05-14T11:29:51;21.30;79.30
28244;DHT22;15510;52.512;13.300;2023-05-14T11:32:18;21.20;79.10
28244;DHT22;15510;52.512;13.300;2023-05-14T11:34:45;21.10;78.10
28244;DHT22;15510;52.512;13.300;2023-05-14T11:37:13;20.90;78.10
28244;DHT22;15510;52.512;13.300;2023-05-14T11:39:49;20.80;78.50
28244;DHT22;15510;52.512;13.300;2023-05-14T11:42:17;20.60;79.90
28244;DHT22;15510;52.512;13.300;2023-05-14T11:44:46;20.50;79.50
28244;DHT22;15510;52.512;13.300;2023-05-14T11:47:14;20.50;80.10
28244;DHT22;15510;52.512;13.300;2023-05-14T11:49:40;20.50;80.10
28244;DHT22;15510;52.512;13.300;2023-05-14T11:52:08;20.70;80.20
28244;DHT22;15510;52.512;13.300;2023-05-14T11:54:36;20.80;79.50
28244;DHT22;15510;52.512;13.300;2023-05-14T11:57:14;21.00;78.90
28244;DHT22;15510;52.512;13.300;2023-05-14T11:59:40;21.30;78.60
28244;DHT22;15510;52.512;13.300;2023-05-14T12:02:12;21.50;78.80
28244;DHT22;15510;52.512;13.300;2023-05-14T12:04:39;21.60;78.40
28244;DHT22;15510;52.512;13.300;2023-05-14T12:07:12;21.50;77.10
28244;DHT22;15510;52.512;13.300;2023-05-14T12:09:42;21.40;77.30
28244;DHT22;15510;52.512;13.300;2023-05-14T12:12:15;21.40;78.10
28244;DHT22;15510;52.512;13.300;2023-05-14T12:14:42;21.40;78.20
28244;DHT22;15510;52.512;13.300;2023-05-14T12:17:20;21.40;78.00
28244;DHT22;15510;52.512;13.300;2023-05-14T12:19:48;21.40;78.00
28244;DHT22;15510;52.512;13.300;2023-05-14T12:22:19;21.30;79.80
28244;DHT22;15510;52.512;13.300;2023-05-14T12:24:56;21.40;78.50
28244;DHT22;15510;52.512;13.300;2023-05-14T12:27:29;21.50;78.40
28244;DHT22;15510;52.512;13.300;2023-05-14T12:30:05;21.70;77.40
28244;DHT22;15510;52.512;13.300;2023-05-14T12:32:32;21.90;76.90
28244;DHT22;15510;52.512;13.300;2023-05-14T12:35:02;22.20;76.70
28244;DHT22;15510;52.512;13.300;2023-05-14T12:37:31;22.50;75.90
28244;DHT22;15510;52.512;13.300;2023-05-14T12:39:57;23.00;74.90
28244;DHT22;15510;52.512;13.300;2023-05-14T12:42:24;23.60;73.60
28244;DHT22;15510;52.512;13.300;2023-05-14T12:44:50;24.00;72.00
28244;DHT22;15510;52.512;13.300;2023-05-14T12:47:19;24.20;70.80
28244;DHT22;15510;52.512;13.300;2023-05-14T12:49:51;24.20;70.40
28244;DHT22;15510;52.512;13.300;2023-05-14T12:52:20;24.50;70.90
28244;DHT22;15510;52.512;13.300;2023-05-14T12:54:49;24.70;69.40
28244;DHT22;15510;52.512;13.300;2023-05-14T12:57:21;24.60;69.40
28244;DHT22;15510;52.512;13.300;2023-05-14T12:59:47;24.50;70.10
28244;DHT22;15510;52.512;13.300;2023-05-14T13:02:13;24.10;69.00
28244;DHT22;15510;52.512;13.300;2023-05-14T13:04:41;23.40;70.10
28244;DHT22;15510;52.512;13.300;2023-05-14T13:07:07;22.90;70.00
28244;DHT22;15510;52.512;13.300;2023-05-14T13:09:33;22.60;70.50
28244;DHT22;15510;52.512;13.300;2023-05-14T13:11:59;22.50;70.80
28244;DHT22;15510;52.512;13.300;2023-05-14T13:14:26;22.40;70.60
28244;DHT22;15510;52.512;13.300;2023-05-14T13:16:52;22.20;70.30
28244;DHT22;15510;52.512;13.300;2023-05-14T13:19:18;22.40;71.00
28244;DHT22;15510;52.512;13.300;2023-05-14T13:21:44;22.80;70.30
28244;DHT22;15510;52.512;13.300;2023-05-14T13:24:09;23.20;68.60
28244;DHT22;15510;52.512;13.300;2023-05-14T13:26:54;23.30;68.40
28244;DHT22;15510;52.512;13.300;2023-05-14T13:29:20;23.20;67.60
28244;DHT22;15510;52.512;13.300;2023-05-14T13:31:46;23.10;67.40
28244;DHT22;15510;52.512;13.300;2023-05-14T13:34:12;22.70;68.70
28244;DHT22;15510;52.512;13.300;2023-05-14T13:36:39;22.50;69.50
28244;DHT22;15510;52.512;13.300;2023-05-14T13:39:06;22.30;69.40
28244;DHT22;15510;52.512;13.300;2023-05-14T13:41:32;22.00;69.90
28244;DHT22;15510;52.512;13.300;2023-05-14T13:44:01;21.90;70.20
28244;DHT22;15510;52.512;13.300;2023-05-14T13:46:28;21.80;70.30
28244;DHT22;15510;52.512;13.300;2023-05-14T13:49:11;21.80;69.40
28244;DHT22;15510;52.512;13.300;2023-05-14T13:51:38;21.50;69.20
28244;DHT22;15510;52.512;13.300;2023-05-14T13:54:05;21.60;70.30
28244;DHT22;15510;52.512;13.300;2023-05-14T13:56:34;21.60;70.20
28244;DHT22;15510;52.512;13.300;2023-05-14T13:59:03;21.70;70.00
28244;DHT22;15510;52.512;13.300;2023-05-14T14:01:33;21.80;70.10
28244;DHT22;15510;52.512;13.300;2023-05-14T14:04:00;21.80;69.00
28244;DHT22;15510;52.512;13.300;2023-05-14T14:06:29;21.90;69.20
28244;DHT22;15510;52.512;13.300;2023-05-14T14:09:06;21.80;69.20
28244;DHT22;15510;52.512;13.300;2023-05-14T14:11:36;21.70;69.50
28244;DHT22;15510;52.512;13.300;2023-05-14T14:14:02;21.70;71.00
28244;DHT22;15510;52.512;13.300;2023-05-14T14:16:28;21.70;69.50
28244;DHT22;15510;52.512;13.300;2023-05-14T14:18:55;21.60;70.40
28244;DHT22;15510;52.512;13.300;2023-05-14T14:21:28;21.60;70.00
28244;DHT22;15510;52.512;13.300;2023-05-14T14:23:56;21.60;70.70
28244;DHT22;15510;52.512;13.300;2023-05-14T14:26:23;21.70;70.80
28244;DHT22;15510;52.512;13.300;2023-05-14T14:28:49;21.70;70.30
28244;DHT22;15510;52.512;13.300;2023-05-14T14:31:18;21.80;70.20
28244;DHT22;15510;52.512;13.300;2023-05-14T14:33:45;21.90;70.20
28244;DHT22;15510;52.512;13.300;2023-05-14T14:36:11;22.00;69.60
28244;DHT22;15510;52.512;13.300;2023-05-14T14:38:37;22.00;70.00
28244;DHT22;15510;52.512;13.300;2023-05-14T14:41:04;22.00;69.80
28244;DHT22;15510;52.512;13.300;2023-05-14T14:43:39;22.10;70.10
28244;DHT22;15510;52.512;13.300;2023-05-14T14:46:06;22.20;71.00
28244;DHT22;15510;52.512;13.300;2023-05-14T14:48:37;22.20;69.70
28244;DHT22;15510;52.512;13.300;2023-05-14T14:51:05;22.40;69.20
28244;DHT22;15510;52.512;13.300;2023-05-14T14:53:37;22.40;68.20
28244;DHT22;15510;52.512;13.300;2023-05-14T14:56:05;22.60;69.20
28244;DHT22;15510;52.512;13.300;2023-05-14T14:58:34;22.60;67.40
28244;DHT22;15510;52.512;13.300;2023-05-14T15:01:00;22.50;67.00
28244;DHT22;15510;52.512;13.300;2023-05-14T15:03:26;22.50;66.90
28244;DHT22;15510;52.512;13.300;2023-05-14T15:05:52;22.50;66.10
28244;DHT22;15510;52.512;13.300;2023-05-14T15:08:23;22.40;65.70
28244;DHT22;15510;52.512;13.300;2023-05-14T15:11:22;22.40;65.60
28244;DHT22;15510;52.512;13.300;2023-05-14T15:14:07;22.50;65.20
28244;DHT22;15510;52.512;13.300;2023-05-14T15:19:32;22.70;64.70
28244;DHT22;15510;52.512;13.300;2023-05-14T15:22:20;22.70;64.70
28244;DHT22;15510;52.512;13.300;2023-05-14T15:25:09;22.40;64.90
28244;DHT22;15510;52.512;13.300;2023-05-14T15:27:59;22.50;64.70